sensor_id;sensor_type;location;lat;lon;timestamp;pressure;altitude;pressure_sealevel;temperature;humidity
69153;BME280;56261;51.580;4.578;2023-04-16T00:01:48;102384.00;;;8.62;100.00
69153;BME280;56261;51.580;4.578;2023-04-16T00:04:13;102374.44;;;8.71;100.00
69153;BME280;56261;51.580;4.578;2023-04-16T00:06:39;102383.03;;;8.75;100.00
69153;BME280;56261;51.580;4.578;2023-04-16T00:09:05;102377.84;;;8.73;100.00
69153;BME280;56261;51.580;4.578;2023-04-16T00:11:30;102383.84;;;8.64;100.00
69153;BME280;56261;51.580;4.578;2023-04-16T00:13:55;102379.88;;;8.69;100.00
69153;BME280;56261;51.580;4.578;2023-04-16T00:16:21;102375.66;;;8.67;100.00
69153;BME280;56261;51.580;4.578;2023-04-16T00:18:46;102372.84;;;8.68;100.00
69153;BME280;56261;51.580;4.578;2023-04-16T00:21:12;102375.50;;;8.68;100.00
69153;BME280;56261;51.580;4.578;2023-04-16T00:23:37;102380.50;;;8.73;100.00
69153;BME280;56261;51.580;4.578;2023-04-16T00:26:02;102377.22;;;8.69;100.00
69153;BME280;56261;51.580;4.578;2023-04-16T00:28:28;102385.44;;;8.66;100.00
69153;BME280;56261;51.580;4.578;2023-04-16T00:30:54;102372.63;;;8.71;100.00
69153;BME280;56261;51.580;4.578;2023-04-16T00:33:19;102377.94;;;8.71;100.00
69153;BME280;56261;51.580;4.578;2023-04-16T00:35:46;102374.81;;;8.66;100.00
69153;BME280;56261;51.580;4.578;2023-04-16T00:38:12;102368.41;;;8.69;100.00
69153;BME280;56261;51.580;4.578;2023-04-16T00:40:37;102368.63;;;8.77;100.00
69153;BME280;56261;51.580;4.578;2023-04-16T00:43:03;102367.91;;;8.75;100.00
69153;BME280;56261;51.580;4.578;2023-04-16T00:45:28;102368.25;;;8.70;100.00
69153;BME280;56261;51.580;4.578;2023-04-16T00:47:55;102366.94;;;8.76;100.00
69153;BME280;56261;51.580;4.578;2023-04-16T00:50:22;102376.88;;;8.85;100.00
69153;BME280;56261;51.580;4.578;2023-04-16T00:52:48;102372.28;;;8.76;100.00
69153;BME280;56261;51.580;4.578;2023-04-16T00:55:14;102372.53;;;8.73;100.00
69153;BME280;56261;51.580;4.578;2023-04-16T00:57:41;102369.84;;;8.73;100.00
69153;BME280;56261;51.580;4.578;2023-04-16T01:00:07;102380.50;;;8.73;100.00
69153;BME280;56261;51.580;4.578;2023-04-16T01:02:34;102377.34;;;8.68;100.00
69153;BME280;56261;51.580;4.578;2023-04-16T01:05:00;102376.25;;;8.70;100.00
69153;BME280;56261;51.580;4.578;2023-04-16T01:07:26;102376.50;;;8.67;100.00
69153;BME280;56261;51.580;4.578;2023-04-16T01:09:51;102376.25;;;8.70;100.00
69153;BME280;56261;51.580;4.578;2023-04-16T01:12:17;102382.06;;;8.76;100.00
69153;BME280;56261;51.580;4.578;2023-04-16T01:14:42;102364.16;;;8.66;100.00
69153;BME280;56261;51.580;4.578;2023-04-16T01:17:08;102370.91;;;8.70;100.00
69153;BME280;56261;51.580;4.578;2023-04-16T01:19:33;102378.44;;;8.77;100.00
69153;BME280;56261;51.580;4.578;2023-04-16T01:22:03;102376.84;;;8.74;100.00
69153;BME280;56261;51.580;4.578;2023-04-16T01:24:29;102380.59;;;8.71;100.00
69153;BME280;56261;51.580;4.578;2023-04-16T01:26:56;102378.31;;;8.67;100.00
69153;BME280;56261;51.580;4.578;2023-04-16T01:29:22;102376.03;;;8.73;100.00
69153;BME280;56261;51.580;4.578;2023-04-16T01:31:47;102378.66;;;8.62;100.00
69153;BME280;56261;51.580;4.578;2023-04-16T01:34:12;102372.75;;;8.70;100.00
69153;BME280;56261;51.580;4.578;2023-04-16T01:36:38;102380.84;;;8.68;100.00
69153;BME280;56261;51.580;4.578;2023-04-16T01:39:03;102379.78;;;8.71;100.00
69153;BME280;56261;51.580;4.578;2023-04-16T01:41:30;102368.97;;;8.61;100.00
69153;BME280;56261;51.580;4.578;2023-04-16T01:43:56;102370.56;;;8.64;100.00
69153;BME280;56261;51.580;4.578;2023-04-16T01:46:30;102374.78;;;8.55;100.00
69153;BME280;56261;51.580;4.578;2023-04-16T01:48:56;102367.41;;;8.59;100.00
69153;BME280;56261;51.580;4.578;2023-04-16T01:51:22;102370.44;;;8.65;100.00
69153;BME280;56261;51.580;4.578;2023-04-16T01:53:49;102378.81;;;8.37;100.00
69153;BME280;56261;51.580;4.578;2023-04-16T01:56:14;102368.22;;;8.48;100.00
69153;BME280;56261;51.580;4.578;2023-04-16T01:58:40;102369.13;;;8.60;100.00
69153;BME280;56261;51.580;4.578;2023-04-16T02:01:10;102370.91;;;8.48;100.00
69153;BME280;56261;51.580;4.578;2023-04-16T02:03:35;102369.31;;;8.45;100.00
69153;BME280;56261;51.580;4.578;2023-04-16T02:06:01;102368.25;;;8.59;100.00
69153;BME280;56261;51.580;4.578;2023-04-16T02:08:26;102362.09;;;8.59;100.00
69153;BME280;56261;51.580;4.578;2023-04-16T02:10:52;102371.28;;;8.55;100.00
69153;BME280;56261;51.580;4.578;2023-04-16T02:13:17;102374.66;;;8.57;100.00
69153;BME280;56261;51.580;4.578;2023-04-16T02:15:49;102375.72;;;8.43;100.00
69153;BME280;56261;51.580;4.578;2023-04-16T02:18:15;102373.44;;;8.49;100.00
69153;BME280;56261;51.580;4.578;2023-04-16T02:20:44;102377.78;;;8.50;100.00
69153;BME280;56261;51.580;4.578;2023-04-16T02:23:10;102366.19;;;8.51;100.00
69153;BME280;56261;51.580;4.578;2023-04-16T02:25:44;102370.16;;;8.46;100.00
69153;BME280;56261;51.580;4.578;2023-04-16T02:28:12;102364.53;;;8.26;100.00
69153;BME280;56261;51.580;4.578;2023-04-16T02:30:39;102357.53;;;8.25;100.00
69153;BME280;56261;51.580;4.578;2023-04-16T02:33:05;102356.09;;;8.32;100.00
69153;BME280;56261;51.580;4.578;2023-04-16T02:35:35;102358.34;;;8.26;100.00
69153;BME280;56261;51.580;4.578;2023-04-16T02:38:01;102352.91;;;8.16;100.00
69153;BME280;56261;51.580;4.578;2023-04-16T02:40:27;102356.41;;;8.17;100.00
69153;BME280;56261;51.580;4.578;2023-04-16T02:42:53;102353.28;;;8.23;100.00
69153;BME280;56261;51.580;4.578;2023-04-16T02:45:19;102347.94;;;8.11;100.00
69153;BME280;56261;51.580;4.578;2023-04-16T02:47:46;102355.22;;;8.21;100.00
69153;BME280;56261;51.580;4.578;2023-04-16T02:50:11;102359.22;;;8.26;100.00
69153;BME280;56261;51.580;4.578;2023-04-16T02:52:37;102357.28;;;8.17;100.00
69153;BME280;56261;51.580;4.578;2023-04-16T02:55:02;102350.63;;;8.23;100.00
69153;BME280;56261;51.580;4.578;2023-04-16T02:57:27;102343.81;;;8.07;100.00
69153;BME280;56261;51.580;4.578;2023-04-16T02:59:53;102350.94;;;8.07;100.00
69153;BME280;56261;51.580;4.578;2023-04-16T03:02:18;102351.31;;;8.02;100.00
69153;BME280;56261;51.580;4.578;2023-04-16T03:04:44;102341.06;;;8.09;100.00
69153;BME280;56261;51.580;4.578;2023-04-16T03:07:09;102347.94;;;8.11;100.00
69153;BME280;56261;51.580;4.578;2023-04-16T03:09:36;102347.69;;;8.15;100.00
69153;BME280;56261;51.580;4.578;2023-04-16T03:12:02;102359.78;;;8.19;100.00
69153;BME280;56261;51.580;4.578;2023-04-16T03:14:27;102346.13;;;8.12;100.00
69153;BME280;56261;51.580;4.578;2023-04-16T03:16:53;102351.38;;;8.25;100.00
69153;BME280;56261;51.580;4.578;2023-04-16T03:19:18;102358.03;;;8.30;100.00
69153;BME280;56261;51.580;4.578;2023-04-16T03:21:44;102361.28;;;8.34;100.00
69153;BME280;56261;51.580;4.578;2023-04-16T03:24:09;102361.75;;;8.28;100.00
69153;BME280;56261;51.580;4.578;2023-04-16T03:26:35;102367.41;;;8.23;100.00
69153;BME280;56261;51.580;4.578;2023-04-16T03:29:01;102363.69;;;8.26;100.00
69153;BME280;56261;51.580;4.578;2023-04-16T03:31:26;102373.72;;;8.22;100.00
69153;BME280;56261;51.580;4.578;2023-04-16T03:33:52;102360.25;;;8.13;100.00
69153;BME280;56261;51.580;4.578;2023-04-16T03:36:17;102357.94;;;8.08;100.00
69153;BME280;56261;51.580;4.578;2023-04-16T03:38:43;102365.06;;;8.07;100.00
69153;BME280;56261;51.580;4.578;2023-04-16T03:41:08;102367.63;;;8.09;100.00
69153;BME280;56261;51.580;4.578;2023-04-16T03:43:33;102354.69;;;8.04;100.00
69153;BME280;56261;51.580;4.578;2023-04-16T03:45:59;102366.78;;;8.08;100.00
69153;BME280;56261;51.580;4.578;2023-04-16T03:48:24;102371.63;;;8.15;100.00
69153;BME280;56261;51.580;4.578;2023-04-16T03:50:50;102370.41;;;8.07;100.00
69153;BME280;56261;51.580;4.578;2023-04-16T03:53:15;102368.13;;;8.14;100.00
69153;BME280;56261;51.580;4.578;2023-04-16T03:55:41;102367.63;;;8.09;100.00
69153;BME280;56261;51.580;4.578;2023-04-16T03:58:06;102373.28;;;8.04;100.00
69153;BME280;56261;51.580;4.578;2023-04-16T04:00:32;102373.34;;;8.16;100.00
69153;BME280;56261;51.580;4.578;2023-04-16T04:02:57;102380.81;;;8.10;100.00
69153;BME280;56261;51.580;4.578;2023-04-16T04:05:22;102377.06;;;8.13;100.00
69153;BME280;56261;51.580;4.578;2023-04-16T04:07:48;102366.78;;;8.08;100.00
69153;BME280;56261;51.580;4.578;2023-04-16T04:10:14;102374.56;;;8.23;100.00
69153;BME280;56261;51.580;4.578;2023-04-16T04:12:40;102379.97;;;8.21;100.00
69153;BME280;56261;51.580;4.578;2023-04-16T04:15:06;102381.66;;;8.11;100.00
69153;BME280;56261;51.580;4.578;2023-04-16T04:17:31;102375.22;;;8.02;100.00
69153;BME280;56261;51.580;4.578;2023-04-16T04:19:57;102363.34;;;7.95;100.00
69153;BME280;56261;51.580;4.578;2023-04-16T04:22:22;102377.06;;;8.13;100.00
69153;BME280;56261;51.580;4.578;2023-04-16T04:24:47;102379.88;;;8.23;100.00
69153;BME280;56261;51.580;4.578;2023-04-16T04:27:13;102377.91;;;8.14;100.00
69153;BME280;56261;51.580;4.578;2023-04-16T04:29:38;102377.28;;;8.10;100.00
69153;BME280;56261;51.580;4.578;2023-04-16T04:32:04;102376.69;;;8.06;100.00
69153;BME280;56261;51.580;4.578;2023-04-16T04:34:29;102370.84;;;8.01;100.00
69153;BME280;56261;51.580;4.578;2023-04-16T04:36:55;102379.84;;;8.11;100.00
69153;BME280;56261;51.580;4.578;2023-04-16T04:39:20;102371.13;;;8.09;100.00
69153;BME280;56261;51.580;4.578;2023-04-16T04:41:46;102383.09;;;8.04;100.00
69153;BME280;56261;51.580;4.578;2023-04-16T04:44:12;102383.09;;;8.04;100.00
69153;BME280;56261;51.580;4.578;2023-04-16T04:46:38;102390.84;;;8.18;100.00
69153;BME280;56261;51.580;4.578;2023-04-16T04:49:04;102378.38;;;8.07;100.00
69153;BME280;56261;51.580;4.578;2023-04-16T04:51:29;102380.81;;;8.10;100.00
69153;BME280;56261;51.580;4.578;2023-04-16T04:53:55;102387.53;;;8.03;100.00
69153;BME280;56261;51.580;4.578;2023-04-16T04:56:20;102389.84;;;8.08;100.00
69153;BME280;56261;51.580;4.578;2023-04-16T04:58:48;102398.94;;;8.17;100.00
69153;BME280;56261;51.580;4.578;2023-04-16T05:01:14;102390.06;;;8.05;100.00
69153;BME280;56261;51.580;4.578;2023-04-16T05:03:39;102400.34;;;8.09;100.00
69153;BME280;56261;51.580;4.578;2023-04-16T05:06:06;102399.41;;;8.10;100.00
69153;BME280;56261;51.580;4.578;2023-04-16T05:08:33;102403.66;;;8.13;100.00
69153;BME280;56261;51.580;4.578;2023-04-16T05:10:58;102396.22;;;8.05;100.00
69153;BME280;56261;51.580;4.578;2023-04-16T05:13:24;102410.16;;;8.09;100.00
69153;BME280;56261;51.580;4.578;2023-04-16T05:15:49;102398.34;;;8.13;100.00
69153;BME280;56261;51.580;4.578;2023-04-16T05:18:14;102403.50;;;8.15;100.00
69153;BME280;56261;51.580;4.578;2023-04-16T05:20:40;102405.97;;;8.18;100.00
69153;BME280;56261;51.580;4.578;2023-04-16T05:23:05;102406.31;;;8.13;100.00
69153;BME280;56261;51.580;4.578;2023-04-16T05:25:31;102403.00;;;8.09;100.00
69153;BME280;56261;51.580;4.578;2023-04-16T05:27:56;102414.28;;;8.13;100.00
69153;BME280;56261;51.580;4.578;2023-04-16T05:30:22;102413.19;;;8.16;100.00
69153;BME280;56261;51.580;4.578;2023-04-16T05:32:47;102407.78;;;8.17;100.00
69153;BME280;56261;51.580;4.578;2023-04-16T05:35:12;102416.00;;;8.25;100.00
69153;BME280;56261;51.580;4.578;2023-04-16T05:37:38;102414.19;;;8.26;100.00
69153;BME280;56261;51.580;4.578;2023-04-16T05:40:03;102415.06;;;8.26;100.00
69153;BME280;56261;51.580;4.578;2023-04-16T05:42:29;102419.34;;;8.16;100.00
69153;BME280;56261;51.580;4.578;2023-04-16T05:44:54;102416.19;;;8.11;100.00
69153;BME280;56261;51.580;4.578;2023-04-16T05:47:20;102419.94;;;8.08;100.00
69153;BME280;56261;51.580;4.578;2023-04-16T05:49:45;102421.06;;;8.17;100.00
69153;BME280;56261;51.580;4.578;2023-04-16T05:52:11;102429.81;;;8.30;100.00
69153;BME280;56261;51.580;4.578;2023-04-16T05:54:36;102423.16;;;8.36;100.00
69153;BME280;56261;51.580;4.578;2023-04-16T05:57:02;102425.44;;;8.29;100.00
69153;BME280;56261;51.580;4.578;2023-04-16T05:59:28;102428.50;;;8.36;100.00
69153;BME280;56261;51.580;4.578;2023-04-16T06:01:55;102425.28;;;8.20;100.00
69153;BME280;56261;51.580;4.578;2023-04-16T06:04:20;102421.69;;;8.32;100.00
69153;BME280;56261;51.580;4.578;2023-04-16T06:06:45;102430.31;;;8.36;100.00
69153;BME280;56261;51.580;4.578;2023-04-16T06:09:11;102433.13;;;8.45;100.00
69153;BME280;56261;51.580;4.578;2023-04-16T06:11:39;102429.47;;;8.35;100.00
69153;BME280;56261;51.580;4.578;2023-04-16T06:14:04;102432.81;;;8.37;100.00
69153;BME280;56261;51.580;4.578;2023-04-16T06:16:30;102434.16;;;8.31;100.00
69153;BME280;56261;51.580;4.578;2023-04-16T06:18:55;102434.53;;;8.38;100.00
69153;BME280;56261;51.580;4.578;2023-04-16T06:21:21;102425.44;;;8.29;100.00
69153;BME280;56261;51.580;4.578;2023-04-16T06:23:46;102439.22;;;8.35;100.00
69153;BME280;56261;51.580;4.578;2023-04-16T06:26:12;102433.06;;;8.34;100.00
69153;BME280;56261;51.580;4.578;2023-04-16T06:28:37;102439.63;;;8.41;100.00
69153;BME280;56261;51.580;4.578;2023-04-16T06:31:03;102440.50;;;8.42;100.00
69153;BME280;56261;51.580;4.578;2023-04-16T06:33:28;102438.88;;;8.39;100.00
69153;BME280;56261;51.580;4.578;2023-04-16T06:35:54;102446.06;;;8.50;100.00
69153;BME280;56261;51.580;4.578;2023-04-16T06:38:19;102450.44;;;8.51;100.00
69153;BME280;56261;51.580;4.578;2023-04-16T06:40:45;102449.38;;;8.54;100.00
69153;BME280;56261;51.580;4.578;2023-04-16T06:43:10;102456.31;;;8.43;100.00
69153;BME280;56261;51.580;4.578;2023-04-16T06:45:36;102450.66;;;8.48;100.00
69153;BME280;56261;51.580;4.578;2023-04-16T06:48:01;102456.50;;;8.53;100.00
69153;BME280;56261;51.580;4.578;2023-04-16T06:50:27;102454.78;;;8.52;100.00
69153;BME280;56261;51.580;4.578;2023-04-16T06:52:54;102463.50;;;8.54;100.00
69153;BME280;56261;51.580;4.578;2023-04-16T06:55:19;102458.81;;;8.58;100.00
69153;BME280;56261;51.580;4.578;2023-04-16T06:57:45;102462.06;;;8.61;100.00
69153;BME280;56261;51.580;4.578;2023-04-16T07:00:10;102466.75;;;8.46;100.00
69153;BME280;56261;51.580;4.578;2023-04-16T07:02:36;102465.69;;;8.60;100.00
69153;BME280;56261;51.580;4.578;2023-04-16T07:05:02;102479.09;;;8.59;100.00
69153;BME280;56261;51.580;4.578;2023-04-16T07:07:27;102470.03;;;8.61;100.00
69153;BME280;56261;51.580;4.578;2023-04-16T07:09:52;102468.47;;;8.59;100.00
69153;BME280;56261;51.580;4.578;2023-04-16T07:12:18;102468.84;;;8.65;100.00
69153;BME280;56261;51.580;4.578;2023-04-16T07:14:45;102472.13;;;8.69;100.00
69153;BME280;56261;51.580;4.578;2023-04-16T07:17:10;102471.78;;;8.73;100.00
69153;BME280;56261;51.580;4.578;2023-04-16T07:19:36;102474.69;;;8.82;100.00
69153;BME280;56261;51.580;4.578;2023-04-16T07:22:01;102472.63;;;8.74;100.00
69153;BME280;56261;51.580;4.578;2023-04-16T07:24:27;102478.78;;;8.75;100.00
69153;BME280;56261;51.580;4.578;2023-04-16T07:26:52;102490.75;;;8.69;100.00
69153;BME280;56261;51.580;4.578;2023-04-16T07:29:17;102485.84;;;8.87;100.00
69153;BME280;56261;51.580;4.578;2023-04-16T07:31:43;102475.75;;;8.68;100.00
69153;BME280;56261;51.580;4.578;2023-04-16T07:34:09;102493.56;;;8.90;100.00
69153;BME280;56261;51.580;4.578;2023-04-16T07:36:34;102492.25;;;8.84;100.00
69153;BME280;56261;51.580;4.578;2023-04-16T07:39:00;102484.88;;;8.88;100.00
69153;BME280;56261;51.580;4.578;2023-04-16T07:41:26;102488.75;;;8.95;100.00
69153;BME280;56261;51.580;4.578;2023-04-16T07:43:51;102492.13;;;8.86;100.00
69153;BME280;56261;51.580;4.578;2023-04-16T07:46:17;102488.00;;;8.82;100.00
69153;BME280;56261;51.580;4.578;2023-04-16T07:48:42;102498.91;;;8.90;100.00
69153;BME280;56261;51.580;4.578;2023-04-16T07:51:08;102499.53;;;8.93;100.00
69153;BME280;56261;51.580;4.578;2023-04-16T07:53:33;102499.28;;;8.97;100.00
69153;BME280;56261;51.580;4.578;2023-04-16T07:55:58;102504.22;;;8.90;100.00
69153;BME280;56261;51.580;4.578;2023-04-16T07:58:24;102506.06;;;9.01;100.00
69153;BME280;56261;51.580;4.578;2023-04-16T08:00:50;102507.00;;;8.88;100.00
69153;BME280;56261;51.580;4.578;2023-04-16T08:03:15;102512.69;;;8.95;100.00
69153;BME280;56261;51.580;4.578;2023-04-16T08:05:42;102516.47;;;9.15;100.00
69153;BME280;56261;51.580;4.578;2023-04-16T08:08:07;102522.03;;;9.01;100.00
69153;BME280;56261;51.580;4.578;2023-04-16T08:10:32;102503.28;;;9.02;100.00
69153;BME280;56261;51.580;4.578;2023-04-16T08:12:59;102515.75;;;9.13;100.00
69153;BME280;56261;51.580;4.578;2023-04-16T08:15:25;102524.72;;;9.23;100.00
69153;BME280;56261;51.580;4.578;2023-04-16T08:17:51;102526.53;;;9.23;100.00
69153;BME280;56261;51.580;4.578;2023-04-16T08:20:17;102534.75;;;9.20;100.00
69153;BME280;56261;51.580;4.578;2023-04-16T08:22:42;102538.50;;;9.17;100.00
69153;BME280;56261;51.580;4.578;2023-04-16T08:25:09;102537.56;;;9.18;100.00
69153;BME280;56261;51.580;4.578;2023-04-16T08:27:34;102540.56;;;9.13;100.00
69153;BME280;56261;51.580;4.578;2023-04-16T08:29:59;102542.16;;;9.27;100.00
69153;BME280;56261;51.580;4.578;2023-04-16T08:32:25;102532.84;;;9.44;100.00
69153;BME280;56261;51.580;4.578;2023-04-16T08:34:51;102541.31;;;9.27;100.00
69153;BME280;56261;51.580;4.578;2023-04-16T08:37:16;102541.19;;;9.28;100.00
69153;BME280;56261;51.580;4.578;2023-04-16T08:39:42;102546.16;;;9.33;100.00
69153;BME280;56261;51.580;4.578;2023-04-16T08:42:13;102545.41;;;9.31;100.00
69153;BME280;56261;51.580;4.578;2023-04-16T08:44:47;102551.84;;;9.28;100.00
69153;BME280;56261;51.580;4.578;2023-04-16T08:47:14;102545.31;;;9.32;100.00
69153;BME280;56261;51.580;4.578;2023-04-16T08:49:43;102563.47;;;9.39;100.00
69153;BME280;56261;51.580;4.578;2023-04-16T08:52:17;102570.00;;;9.34;100.00
69153;BME280;56261;51.580;4.578;2023-04-16T08:55:03;102556.22;;;9.52;100.00
69153;BME280;56261;51.580;4.578;2023-04-16T08:57:38;102555.25;;;9.42;100.00
69153;BME280;56261;51.580;4.578;2023-04-16T09:00:07;102563.97;;;9.55;100.00
69153;BME280;56261;51.580;4.578;2023-04-16T09:02:34;102562.03;;;9.57;100.00
69153;BME280;56261;51.580;4.578;2023-04-16T09:05:01;102565.06;;;9.52;100.00
69153;BME280;56261;51.580;4.578;2023-04-16T09:07:28;102563.00;;;9.67;100.00
69153;BME280;56261;51.580;4.578;2023-04-16T09:09:53;102564.59;;;9.81;100.00
69153;BME280;56261;51.580;4.578;2023-04-16T09:12:22;102553.91;;;9.81;100.00
69153;BME280;56261;51.580;4.578;2023-04-16T09:14:51;102566.25;;;9.82;100.00
69153;BME280;56261;51.580;4.578;2023-04-16T09:17:17;102563.97;;;9.66;100.00
69153;BME280;56261;51.580;4.578;2023-04-16T09:19:44;102571.72;;;9.81;100.00
69153;BME280;56261;51.580;4.578;2023-04-16T09:22:10;102572.22;;;9.63;100.00
69153;BME280;56261;51.580;4.578;2023-04-16T09:24:35;102569.44;;;9.65;100.00
69153;BME280;56261;51.580;4.578;2023-04-16T09:27:03;102574.03;;;9.96;100.00
69153;BME280;56261;51.580;4.578;2023-04-16T09:29:33;102571.47;;;9.72;100.00
69153;BME280;56261;51.580;4.578;2023-04-16T09:32:01;102563.00;;;9.79;100.00
69153;BME280;56261;51.580;4.578;2023-04-16T09:34:28;102574.38;;;10.03;100.00
69153;BME280;56261;51.580;4.578;2023-04-16T09:36:53;102572.91;;;9.99;100.00
69153;BME280;56261;51.580;4.578;2023-04-16T09:39:18;102575.34;;;9.91;100.00
69153;BME280;56261;51.580;4.578;2023-04-16T09:41:44;102587.94;;;9.89;100.00
69153;BME280;56261;51.580;4.578;2023-04-16T09:44:12;102585.06;;;9.92;100.00
69153;BME280;56261;51.580;4.578;2023-04-16T09:46:41;102580.56;;;9.92;100.00
69153;BME280;56261;51.580;4.578;2023-04-16T09:49:14;102584.91;;;9.93;100.00
69153;BME280;56261;51.580;4.578;2023-04-16T09:51:41;102592.78;;;9.95;100.00
69153;BME280;56261;51.580;4.578;2023-04-16T09:54:07;102595.09;;;9.88;100.00
69153;BME280;56261;51.580;4.578;2023-04-16T09:56:38;102600.66;;;10.08;100.00
69153;BME280;56261;51.580;4.578;2023-04-16T09:59:04;102605.03;;;9.97;100.00
69153;BME280;56261;51.580;4.578;2023-04-16T10:01:29;102602.34;;;10.09;100.00
69153;BME280;56261;51.580;4.578;2023-04-16T10:03:55;102600.91;;;10.16;100.00
69153;BME280;56261;51.580;4.578;2023-04-16T10:06:22;102602.00;;;10.02;100.00
69153;BME280;56261;51.580;4.578;2023-04-16T10:08:51;102608.66;;;10.08;100.00
69153;BME280;56261;51.580;4.578;2023-04-16T10:11:18;102611.09;;;10.00;100.00
69153;BME280;56261;51.580;4.578;2023-04-16T10:13:44;102612.53;;;9.92;100.00
69153;BME280;56261;51.580;4.578;2023-04-16T10:16:09;102611.69;;;10.03;100.00
69153;BME280;56261;51.580;4.578;2023-04-16T10:18:36;102618.22;;;10.10;100.00
69153;BME280;56261;51.580;4.578;2023-04-16T10:21:02;102614.47;;;10.02;100.00
69153;BME280;56261;51.580;4.578;2023-04-16T10:23:28;102618.59;;;9.83;100.00
69153;BME280;56261;51.580;4.578;2023-04-16T10:25:55;102623.94;;;9.94;100.00
69153;BME280;56261;51.580;4.578;2023-04-16T10:28:23;102624.41;;;9.88;100.00
69153;BME280;56261;51.580;4.578;2023-04-16T10:30:50;102620.66;;;9.91;100.00
69153;BME280;56261;51.580;4.578;2023-04-16T10:33:25;102628.28;;;9.95;100.00
69153;BME280;56261;51.580;4.578;2023-04-16T10:35:52;102625.75;;;9.94;100.00
69153;BME280;56261;51.580;4.578;2023-04-16T10:38:31;102624.91;;;10.05;100.00
69153;BME280;56261;51.580;4.578;2023-04-16T10:41:03;102625.38;;;10.10;100.00
69153;BME280;56261;51.580;4.578;2023-04-16T10:43:32;102624.31;;;10.01;100.00
69153;BME280;56261;51.580;4.578;2023-04-16T10:46:17;102630.00;;;9.85;100.00
69153;BME280;56261;51.580;4.578;2023-04-16T10:48:42;102633.13;;;9.90;100.00
69153;BME280;56261;51.580;4.578;2023-04-16T10:51:23;102625.03;;;10.03;100.00
69153;BME280;56261;51.580;4.578;2023-04-16T10:53:48;102618.13;;;10.01;100.00
69153;BME280;56261;51.580;4.578;2023-04-16T10:56:21;102624.78;;;10.29;100.00
69153;BME280;56261;51.580;4.578;2023-04-16T10:58:47;102624.66;;;10.19;100.00
69153;BME280;56261;51.580;4.578;2023-04-16T11:01:13;102627.44;;;10.06;100.00
69153;BME280;56261;51.580;4.578;2023-04-16T11:03:50;102626.69;;;10.15;100.00
69153;BME280;56261;51.580;4.578;2023-04-16T11:06:23;102626.97;;;10.35;100.00
69153;BME280;56261;51.580;4.578;2023-04-16T11:08:52;102619.91;;;10.45;100.00
69153;BME280;56261;51.580;4.578;2023-04-16T11:11:18;102628.91;;;10.33;100.00
69153;BME280;56261;51.580;4.578;2023-04-16T11:13:44;102631.31;;;10.13;100.00
69153;BME280;56261;51.580;4.578;2023-04-16T11:16:14;102633.03;;;10.03;100.00
69153;BME280;56261;51.580;4.578;2023-04-16T11:18:40;102628.66;;;10.02;100.00
69153;BME280;56261;51.580;4.578;2023-04-16T11:21:10;102628.53;;;10.15;100.00
69153;BME280;56261;51.580;4.578;2023-04-16T11:23:50;102627.31;;;10.19;100.00
69153;BME280;56261;51.580;4.578;2023-04-16T11:26:26;102626.81;;;10.25;100.00
69153;BME280;56261;51.580;4.578;2023-04-16T11:28:53;102621.72;;;10.22;100.00
69153;BME280;56261;51.580;4.578;2023-04-16T11:31:19;102619.69;;;10.37;100.00
69153;BME280;56261;51.580;4.578;2023-04-16T11:33:44;102620.63;;;10.25;100.00
69153;BME280;56261;51.580;4.578;2023-04-16T11:36:10;102627.19;;;10.21;100.00
69153;BME280;56261;51.580;4.578;2023-04-16T11:38:36;102630.34;;;10.14;100.00
69153;BME280;56261;51.580;4.578;2023-04-16T11:41:02;102636.06;;;10.10;100.00
69153;BME280;56261;51.580;4.578;2023-04-16T11:43:27;102630.84;;;9.97;100.00
69153;BME280;56261;51.580;4.578;2023-04-16T11:45:59;102630.81;;;10.19;100.00
69153;BME280;56261;51.580;4.578;2023-04-16T11:48:25;102633.25;;;10.23;100.00
69153;BME280;56261;51.580;4.578;2023-04-16T11:51:10;102616.53;;;10.09;100.00
69153;BME280;56261;51.580;4.578;2023-04-16T11:53:35;102629.88;;;10.21;100.00
69153;BME280;56261;51.580;4.578;2023-04-16T11:56:01;102632.19;;;10.36;100.00
69153;BME280;56261;51.580;4.578;2023-04-16T11:58:27;102632.91;;;10.38;100.00
69153;BME280;56261;51.580;4.578;2023-04-16T12:00:52;102626.34;;;10.31;100.00
69153;BME280;56261;51.580;4.578;2023-04-16T12:03:39;102632.66;;;10.30;100.00
69153;BME280;56261;51.580;4.578;2023-04-16T12:06:08;102646.00;;;10.30;100.00
69153;BME280;56261;51.580;4.578;2023-04-16T12:08:34;102641.38;;;10.44;100.00
69153;BME280;56261;51.580;4.578;2023-04-16T12:10:59;102646.44;;;10.47;100.00
69153;BME280;56261;51.580;4.578;2023-04-16T12:13:24;102642.34;;;10.31;100.00
69153;BME280;56261;51.580;4.578;2023-04-16T12:15:54;102649.00;;;10.26;100.00
69153;BME280;56261;51.580;4.578;2023-04-16T12:18:22;102639.34;;;10.36;100.00
69153;BME280;56261;51.580;4.578;2023-04-16T12:20:49;102643.56;;;10.27;100.00
69153;BME280;56261;51.580;4.578;2023-04-16T12:23:33;102655.91;;;10.39;100.00
69153;BME280;56261;51.580;4.578;2023-04-16T12:26:06;102646.44;;;10.24;100.00
69153;BME280;56261;51.580;4.578;2023-04-16T12:28:35;102643.19;;;10.43;100.00
69153;BME280;56261;51.580;4.578;2023-04-16T12:31:04;102656.75;;;10.51;100.00
69153;BME280;56261;51.580;4.578;2023-04-16T12:33:30;102646.72;;;10.44;100.00
69153;BME280;56261;51.580;4.578;2023-04-16T12:35:55;102658.72;;;10.49;100.00
69153;BME280;56261;51.580;4.578;2023-04-16T12:38:21;102653.25;;;10.39;100.00
69153;BME280;56261;51.580;4.578;2023-04-16T12:40:46;102652.50;;;10.49;100.00
69153;BME280;56261;51.580;4.578;2023-04-16T12:43:12;102642.34;;;10.54;100.00
69153;BME280;56261;51.580;4.578;2023-04-16T12:45:38;102647.28;;;10.58;100.00